sensor_id;sensor_type;location;lat;lon;timestamp;P1;durP1;ratioP1;P2;durP2;ratioP2
72087;SDS011;59961;50.232;8.616;2023-02-28T00:00:47;4.17;;;1.57;;
72087;SDS011;59961;50.232;8.616;2023-02-28T00:03:13;4.00;;;1.75;;
72087;SDS011;59961;50.232;8.616;2023-02-28T00:05:38;4.43;;;1.93;;
72087;SDS011;59961;50.232;8.616;2023-02-28T00:08:03;5.47;;;1.95;;
72087;SDS011;59961;50.232;8.616;2023-02-28T00:10:29;5.00;;;2.00;;
72087;SDS011;59961;50.232;8.616;2023-02-28T00:12:56;5.63;;;2.20;;
72087;SDS011;59961;50.232;8.616;2023-02-28T00:15:23;4.20;;;1.88;;
72087;SDS011;59961;50.232;8.616;2023-02-28T00:17:49;8.63;;;2.30;;
72087;SDS011;59961;50.232;8.616;2023-02-28T00:20:14;4.57;;;2.30;;
72087;SDS011;59961;50.232;8.616;2023-02-28T00:22:41;5.23;;;2.60;;
72087;SDS011;59961;50.232;8.616;2023-02-28T00:25:07;4.30;;;2.08;;
72087;SDS011;59961;50.232;8.616;2023-02-28T00:27:32;4.25;;;2.20;;
72087;SDS011;59961;50.232;8.616;2023-02-28T00:29:58;4.00;;;2.40;;
72087;SDS011;59961;50.232;8.616;2023-02-28T00:32:23;5.40;;;2.40;;
72087;SDS011;59961;50.232;8.616;2023-02-28T00:34:48;5.38;;;2.65;;
72087;SDS011;59961;50.232;8.616;2023-02-28T00:37:13;5.13;;;2.40;;
72087;SDS011;59961;50.232;8.616;2023-02-28T00:39:38;5.05;;;2.08;;
72087;SDS011;59961;50.232;8.616;2023-02-28T00:42:04;4.67;;;2.07;;
72087;SDS011;59961;50.232;8.616;2023-02-28T00:44:30;7.07;;;2.25;;
72087;SDS011;59961;50.232;8.616;2023-02-28T00:46:55;4.30;;;2.20;;
72087;SDS011;59961;50.232;8.616;2023-02-28T00:49:21;5.40;;;2.22;;
72087;SDS011;59961;50.232;8.616;2023-02-28T00:51:46;4.27;;;2.10;;
72087;SDS011;59961;50.232;8.616;2023-02-28T00:54:11;5.72;;;2.33;;
72087;SDS011;59961;50.232;8.616;2023-02-28T00:56:37;6.93;;;2.60;;
72087;SDS011;59961;50.232;8.616;2023-02-28T00:59:02;4.80;;;1.90;;
72087;SDS011;59961;50.232;8.616;2023-02-28T01:01:27;4.60;;;2.03;;
72087;SDS011;59961;50.232;8.616;2023-02-28T01:03:52;4.32;;;2.30;;
72087;SDS011;59961;50.232;8.616;2023-02-28T01:06:17;5.70;;;2.27;;
72087;SDS011;59961;50.232;8.616;2023-02-28T01:08:42;4.53;;;2.00;;
72087;SDS011;59961;50.232;8.616;2023-02-28T01:11:11;7.63;;;2.83;;
72087;SDS011;59961;50.232;8.616;2023-02-28T01:13:37;4.30;;;2.17;;
72087;SDS011;59961;50.232;8.616;2023-02-28T01:16:02;5.30;;;2.27;;
72087;SDS011;59961;50.232;8.616;2023-02-28T01:18:27;5.65;;;2.50;;
72087;SDS011;59961;50.232;8.616;2023-02-28T01:20:53;5.27;;;2.63;;
72087;SDS011;59961;50.232;8.616;2023-02-28T01:23:19;9.57;;;2.93;;
72087;SDS011;59961;50.232;8.616;2023-02-28T01:25:45;6.13;;;2.40;;
72087;SDS011;59961;50.232;8.616;2023-02-28T01:28:10;5.90;;;2.13;;
72087;SDS011;59961;50.232;8.616;2023-02-28T01:30:35;5.47;;;2.33;;
72087;SDS011;59961;50.232;8.616;2023-02-28T01:33:00;4.82;;;2.30;;
72087;SDS011;59961;50.232;8.616;2023-02-28T01:35:25;5.27;;;2.10;;
72087;SDS011;59961;50.232;8.616;2023-02-28T01:37:50;5.28;;;2.15;;
72087;SDS011;59961;50.232;8.616;2023-02-28T01:40:15;5.33;;;2.13;;
72087;SDS011;59961;50.232;8.616;2023-02-28T01:42:41;5.55;;;2.28;;
72087;SDS011;59961;50.232;8.616;2023-02-28T01:47:32;4.53;;;2.03;;
72087;SDS011;59961;50.232;8.616;2023-02-28T01:49:59;5.60;;;2.67;;
72087;SDS011;59961;50.232;8.616;2023-02-28T01:52:25;6.07;;;2.50;;
72087;SDS011;59961;50.232;8.616;2023-02-28T01:54:52;5.32;;;2.42;;
72087;SDS011;59961;50.232;8.616;2023-02-28T01:57:20;5.90;;;2.20;;
72087;SDS011;59961;50.232;8.616;2023-02-28T02:00:31;6.07;;;2.40;;
72087;SDS011;59961;50.232;8.616;2023-02-28T02:02:34;5.88;;;1.98;;
72087;SDS011;59961;50.232;8.616;2023-02-28T02:05:02;4.78;;;2.35;;
72087;SDS011;59961;50.232;8.616;2023-02-28T02:07:29;5.32;;;2.22;;
72087;SDS011;59961;50.232;8.616;2023-02-28T02:09:59;4.30;;;2.05;;
72087;SDS011;59961;50.232;8.616;2023-02-28T02:12:26;3.93;;;1.93;;
72087;SDS011;59961;50.232;8.616;2023-02-28T02:14:58;6.28;;;2.38;;
72087;SDS011;59961;50.232;8.616;2023-02-28T02:17:28;5.70;;;2.30;;
72087;SDS011;59961;50.232;8.616;2023-02-28T02:23:03;6.50;;;2.92;;
72087;SDS011;59961;50.232;8.616;2023-02-28T02:25:28;5.27;;;2.23;;
72087;SDS011;59961;50.232;8.616;2023-02-28T02:27:59;5.65;;;2.25;;
72087;SDS011;59961;50.232;8.616;2023-02-28T02:30:41;4.43;;;2.03;;
72087;SDS011;59961;50.232;8.616;2023-02-28T02:35:47;6.93;;;3.08;;
72087;SDS011;59961;50.232;8.616;2023-02-28T02:41:08;5.88;;;2.47;;
72087;SDS011;59961;50.232;8.616;2023-02-28T02:43:33;5.40;;;2.40;;
72087;SDS011;59961;50.232;8.616;2023-02-28T02:48:58;5.72;;;2.40;;
72087;SDS011;59961;50.232;8.616;2023-02-28T02:51:25;5.50;;;2.00;;
72087;SDS011;59961;50.232;8.616;2023-02-28T02:53:52;4.43;;;2.00;;
72087;SDS011;59961;50.232;8.616;2023-02-28T02:56:19;5.63;;;2.53;;
72087;SDS011;59961;50.232;8.616;2023-02-28T02:58:45;6.10;;;2.33;;
72087;SDS011;59961;50.232;8.616;2023-02-28T03:01:12;5.25;;;2.42;;
72087;SDS011;59961;50.232;8.616;2023-02-28T03:03:39;6.57;;;2.57;;
72087;SDS011;59961;50.232;8.616;2023-02-28T03:06:05;4.85;;;2.20;;
72087;SDS011;59961;50.232;8.616;2023-02-28T03:08:33;4.82;;;2.67;;
72087;SDS011;59961;50.232;8.616;2023-02-28T03:10:59;6.00;;;2.27;;
72087;SDS011;59961;50.232;8.616;2023-02-28T03:21:24;6.97;;;2.55;;
72087;SDS011;59961;50.232;8.616;2023-02-28T03:24:05;4.57;;;2.00;;
72087;SDS011;59961;50.232;8.616;2023-02-28T03:26:33;4.75;;;2.33;;
72087;SDS011;59961;50.232;8.616;2023-02-28T03:29:03;6.57;;;2.00;;
72087;SDS011;59961;50.232;8.616;2023-02-28T03:31:31;5.35;;;2.60;;
72087;SDS011;59961;50.232;8.616;2023-02-28T03:34:41;7.03;;;2.28;;
72087;SDS011;59961;50.232;8.616;2023-02-28T03:36:51;5.20;;;1.90;;
72087;SDS011;59961;50.232;8.616;2023-02-28T03:39:28;6.07;;;2.55;;
72087;SDS011;59961;50.232;8.616;2023-02-28T03:41:59;7.93;;;2.15;;
72087;SDS011;59961;50.232;8.616;2023-02-28T03:44:27;4.70;;;2.40;;
72087;SDS011;59961;50.232;8.616;2023-02-28T03:47:08;5.28;;;2.08;;
72087;SDS011;59961;50.232;8.616;2023-02-28T03:49:35;4.93;;;2.37;;
72087;SDS011;59961;50.232;8.616;2023-02-28T03:52:02;4.82;;;2.30;;
72087;SDS011;59961;50.232;8.616;2023-02-28T03:54:29;4.78;;;1.95;;
72087;SDS011;59961;50.232;8.616;2023-02-28T03:59:40;5.65;;;2.35;;
72087;SDS011;59961;50.232;8.616;2023-02-28T04:02:06;5.13;;;2.10;;
72087;SDS011;59961;50.232;8.616;2023-02-28T04:04:32;6.60;;;2.05;;
72087;SDS011;59961;50.232;8.616;2023-02-28T04:07:03;5.30;;;2.17;;
72087;SDS011;59961;50.232;8.616;2023-02-28T04:09:28;5.80;;;2.50;;
72087;SDS011;59961;50.232;8.616;2023-02-28T04:11:54;4.13;;;2.33;;
72087;SDS011;59961;50.232;8.616;2023-02-28T04:14:20;5.22;;;2.10;;
72087;SDS011;59961;50.232;8.616;2023-02-28T04:16:46;4.20;;;1.57;;
72087;SDS011;59961;50.232;8.616;2023-02-28T04:19:11;3.40;;;1.70;;
72087;SDS011;59961;50.232;8.616;2023-02-28T04:21:41;4.93;;;2.10;;
72087;SDS011;59961;50.232;8.616;2023-02-28T04:24:07;5.25;;;2.20;;
72087;SDS011;59961;50.232;8.616;2023-02-28T04:26:34;3.53;;;1.90;;
72087;SDS011;59961;50.232;8.616;2023-02-28T04:29:02;4.40;;;2.30;;
72087;SDS011;59961;50.232;8.616;2023-02-28T04:31:27;5.75;;;2.22;;
72087;SDS011;59961;50.232;8.616;2023-02-28T04:33:53;4.00;;;1.80;;
72087;SDS011;59961;50.232;8.616;2023-02-28T04:36:18;4.07;;;1.90;;
72087;SDS011;59961;50.232;8.616;2023-02-28T04:38:43;5.93;;;2.20;;
72087;SDS011;59961;50.232;8.616;2023-02-28T04:41:09;4.35;;;2.00;;
72087;SDS011;59961;50.232;8.616;2023-02-28T04:43:34;4.68;;;1.75;;
72087;SDS011;59961;50.232;8.616;2023-02-28T04:46:01;5.63;;;2.70;;
72087;SDS011;59961;50.232;8.616;2023-02-28T04:48:27;3.85;;;1.73;;
72087;SDS011;59961;50.232;8.616;2023-02-28T04:50:52;6.10;;;1.93;;
72087;SDS011;59961;50.232;8.616;2023-02-28T04:53:18;4.10;;;1.97;;
72087;SDS011;59961;50.232;8.616;2023-02-28T04:55:43;4.70;;;2.10;;
72087;SDS011;59961;50.232;8.616;2023-02-28T04:58:08;5.17;;;2.07;;
72087;SDS011;59961;50.232;8.616;2023-02-28T05:00:34;3.97;;;1.52;;
72087;SDS011;59961;50.232;8.616;2023-02-28T05:02:59;4.65;;;2.30;;
72087;SDS011;59961;50.232;8.616;2023-02-28T05:05:24;3.97;;;1.80;;
72087;SDS011;59961;50.232;8.616;2023-02-28T05:07:49;3.40;;;1.50;;
72087;SDS011;59961;50.232;8.616;2023-02-28T05:10:14;4.30;;;1.75;;
72087;SDS011;59961;50.232;8.616;2023-02-28T05:12:40;5.20;;;1.90;;
72087;SDS011;59961;50.232;8.616;2023-02-28T05:15:05;5.33;;;2.50;;
72087;SDS011;59961;50.232;8.616;2023-02-28T05:17:30;3.40;;;1.80;;
72087;SDS011;59961;50.232;8.616;2023-02-28T05:19:56;4.07;;;1.83;;
72087;SDS011;59961;50.232;8.616;2023-02-28T05:22:21;4.27;;;2.00;;
72087;SDS011;59961;50.232;8.616;2023-02-28T05:24:46;4.53;;;1.60;;
72087;SDS011;59961;50.232;8.616;2023-02-28T05:27:11;4.90;;;1.40;;
72087;SDS011;59961;50.232;8.616;2023-02-28T05:29:36;4.40;;;1.55;;
72087;SDS011;59961;50.232;8.616;2023-02-28T05:32:07;3.88;;;1.85;;
72087;SDS011;59961;50.232;8.616;2023-02-28T05:34:33;8.40;;;1.90;;
72087;SDS011;59961;50.232;8.616;2023-02-28T05:36:58;5.47;;;2.20;;
72087;SDS011;59961;50.232;8.616;2023-02-28T05:39:23;4.33;;;1.47;;
72087;SDS011;59961;50.232;8.616;2023-02-28T05:41:48;3.25;;;1.35;;
72087;SDS011;59961;50.232;8.616;2023-02-28T05:44:13;3.40;;;1.83;;
72087;SDS011;59961;50.232;8.616;2023-02-28T05:46:40;5.30;;;1.80;;
72087;SDS011;59961;50.232;8.616;2023-02-28T05:49:05;5.10;;;2.10;;
72087;SDS011;59961;50.232;8.616;2023-02-28T05:51:30;4.33;;;2.20;;
72087;SDS011;59961;50.232;8.616;2023-02-28T05:53:58;4.43;;;1.88;;
72087;SDS011;59961;50.232;8.616;2023-02-28T05:56:23;4.20;;;1.75;;
72087;SDS011;59961;50.232;8.616;2023-02-28T05:58:48;5.80;;;2.10;;
72087;SDS011;59961;50.232;8.616;2023-02-28T06:01:46;4.75;;;2.15;;
72087;SDS011;59961;50.232;8.616;2023-02-28T06:04:05;4.53;;;1.95;;
72087;SDS011;59961;50.232;8.616;2023-02-28T06:06:31;4.53;;;1.93;;
72087;SDS011;59961;50.232;8.616;2023-02-28T06:08:56;5.63;;;2.30;;
72087;SDS011;59961;50.232;8.616;2023-02-28T06:11:23;4.97;;;2.03;;
72087;SDS011;59961;50.232;8.616;2023-02-28T06:13:53;3.67;;;1.60;;
72087;SDS011;59961;50.232;8.616;2023-02-28T06:16:18;4.50;;;1.90;;
72087;SDS011;59961;50.232;8.616;2023-02-28T06:18:43;5.05;;;1.80;;
72087;SDS011;59961;50.232;8.616;2023-02-28T06:21:09;4.73;;;2.13;;
72087;SDS011;59961;50.232;8.616;2023-02-28T06:23:34;4.47;;;2.08;;
72087;SDS011;59961;50.232;8.616;2023-02-28T06:25:59;5.63;;;2.30;;
72087;SDS011;59961;50.232;8.616;2023-02-28T06:28:25;6.30;;;2.53;;
72087;SDS011;59961;50.232;8.616;2023-02-28T06:30:50;7.38;;;2.30;;
72087;SDS011;59961;50.232;8.616;2023-02-28T06:33:15;5.23;;;2.00;;
72087;SDS011;59961;50.232;8.616;2023-02-28T06:35:43;5.43;;;2.35;;
72087;SDS011;59961;50.232;8.616;2023-02-28T06:38:08;5.18;;;2.20;;
72087;SDS011;59961;50.232;8.616;2023-02-28T06:40:33;5.03;;;2.00;;
72087;SDS011;59961;50.232;8.616;2023-02-28T06:43:00;3.90;;;1.57;;
72087;SDS011;59961;50.232;8.616;2023-02-28T06:45:25;3.40;;;1.63;;
72087;SDS011;59961;50.232;8.616;2023-02-28T06:47:51;7.18;;;2.30;;
72087;SDS011;59961;50.232;8.616;2023-02-28T06:50:17;5.73;;;2.10;;
72087;SDS011;59961;50.232;8.616;2023-02-28T06:52:45;6.22;;;2.05;;
72087;SDS011;59961;50.232;8.616;2023-02-28T06:55:11;3.77;;;1.90;;
72087;SDS011;59961;50.232;8.616;2023-02-28T06:57:37;4.25;;;1.80;;
72087;SDS011;59961;50.232;8.616;2023-02-28T07:00:06;4.87;;;1.97;;
72087;SDS011;59961;50.232;8.616;2023-02-28T07:02:32;5.32;;;2.15;;
72087;SDS011;59961;50.232;8.616;2023-02-28T07:04:57;5.40;;;2.37;;
72087;SDS011;59961;50.232;8.616;2023-02-28T07:07:22;4.68;;;2.30;;
72087;SDS011;59961;50.232;8.616;2023-02-28T07:09:48;4.43;;;2.17;;
72087;SDS011;59961;50.232;8.616;2023-02-28T07:12:13;5.37;;;2.17;;
72087;SDS011;59961;50.232;8.616;2023-02-28T07:14:38;6.27;;;2.27;;
72087;SDS011;59961;50.232;8.616;2023-02-28T07:17:03;4.72;;;2.50;;
72087;SDS011;59961;50.232;8.616;2023-02-28T07:19:28;6.28;;;2.42;;
72087;SDS011;59961;50.232;8.616;2023-02-28T07:21:54;5.47;;;2.33;;
72087;SDS011;59961;50.232;8.616;2023-02-28T07:24:19;6.03;;;2.45;;
72087;SDS011;59961;50.232;8.616;2023-02-28T07:26:44;6.63;;;2.70;;
72087;SDS011;59961;50.232;8.616;2023-02-28T07:29:09;5.97;;;2.33;;
72087;SDS011;59961;50.232;8.616;2023-02-28T07:31:34;6.90;;;2.90;;
72087;SDS011;59961;50.232;8.616;2023-02-28T07:34:00;6.73;;;2.23;;
72087;SDS011;59961;50.232;8.616;2023-02-28T07:36:25;5.80;;;2.88;;
72087;SDS011;59961;50.232;8.616;2023-02-28T07:38:50;4.80;;;2.10;;
72087;SDS011;59961;50.232;8.616;2023-02-28T07:41:16;6.40;;;2.83;;
72087;SDS011;59961;50.232;8.616;2023-02-28T07:43:41;4.40;;;1.90;;
72087;SDS011;59961;50.232;8.616;2023-02-28T07:46:08;7.27;;;2.67;;
72087;SDS011;59961;50.232;8.616;2023-02-28T07:48:34;6.17;;;2.63;;
72087;SDS011;59961;50.232;8.616;2023-02-28T07:50:59;9.07;;;2.67;;
72087;SDS011;59961;50.232;8.616;2023-02-28T07:53:25;8.85;;;2.88;;
72087;SDS011;59961;50.232;8.616;2023-02-28T07:55:50;6.97;;;2.43;;
72087;SDS011;59961;50.232;8.616;2023-02-28T07:58:15;6.78;;;1.95;;
72087;SDS011;59961;50.232;8.616;2023-02-28T08:00:40;7.95;;;2.65;;
72087;SDS011;59961;50.232;8.616;2023-02-28T08:03:05;5.55;;;2.35;;
72087;SDS011;59961;50.232;8.616;2023-02-28T08:05:30;6.85;;;2.55;;
72087;SDS011;59961;50.232;8.616;2023-02-28T08:07:55;6.30;;;2.20;;
72087;SDS011;59961;50.232;8.616;2023-02-28T08:10:21;4.67;;;2.33;;
72087;SDS011;59961;50.232;8.616;2023-02-28T08:12:46;6.30;;;2.43;;
72087;SDS011;59961;50.232;8.616;2023-02-28T08:15:11;5.38;;;2.30;;
72087;SDS011;59961;50.232;8.616;2023-02-28T08:17:36;8.33;;;2.67;;
72087;SDS011;59961;50.232;8.616;2023-02-28T08:20:01;4.80;;;2.13;;
72087;SDS011;59961;50.232;8.616;2023-02-28T08:22:28;6.45;;;2.33;;
72087;SDS011;59961;50.232;8.616;2023-02-28T08:24:53;5.83;;;2.43;;
72087;SDS011;59961;50.232;8.616;2023-02-28T08:27:19;6.82;;;1.92;;
72087;SDS011;59961;50.232;8.616;2023-02-28T08:29:44;6.05;;;2.67;;
72087;SDS011;59961;50.232;8.616;2023-02-28T08:32:09;5.47;;;2.75;;
72087;SDS011;59961;50.232;8.616;2023-02-28T08:34:34;5.72;;;1.85;;
72087;SDS011;59961;50.232;8.616;2023-02-28T08:36:59;5.77;;;2.93;;
72087;SDS011;59961;50.232;8.616;2023-02-28T08:39:25;6.60;;;2.43;;
72087;SDS011;59961;50.232;8.616;2023-02-28T08:41:50;4.67;;;2.20;;
72087;SDS011;59961;50.232;8.616;2023-02-28T08:44:15;5.60;;;2.35;;
72087;SDS011;59961;50.232;8.616;2023-02-28T08:46:40;4.65;;;2.40;;
72087;SDS011;59961;50.232;8.616;2023-02-28T08:49:05;6.10;;;2.30;;
72087;SDS011;59961;50.232;8.616;2023-02-28T08:51:31;5.05;;;2.25;;
72087;SDS011;59961;50.232;8.616;2023-02-28T08:53:58;5.77;;;2.30;;
72087;SDS011;59961;50.232;8.616;2023-02-28T08:56:24;6.45;;;2.50;;
72087;SDS011;59961;50.232;8.616;2023-02-28T08:58:50;4.90;;;2.00;;
72087;SDS011;59961;50.232;8.616;2023-02-28T09:01:19;5.95;;;2.40;;
72087;SDS011;59961;50.232;8.616;2023-02-28T09:03:45;3.88;;;2.05;;
72087;SDS011;59961;50.232;8.616;2023-02-28T09:06:11;5.47;;;2.30;;
72087;SDS011;59961;50.232;8.616;2023-02-28T09:08:37;5.03;;;2.28;;
72087;SDS011;59961;50.232;8.616;2023-02-28T09:11:02;4.90;;;1.73;;
72087;SDS011;59961;50.232;8.616;2023-02-28T09:13:28;4.93;;;2.00;;
72087;SDS011;59961;50.232;8.616;2023-02-28T09:15:54;5.85;;;2.17;;
72087;SDS011;59961;50.232;8.616;2023-02-28T09:18:19;5.10;;;1.80;;
72087;SDS011;59961;50.232;8.616;2023-02-28T09:20:44;3.70;;;1.88;;
72087;SDS011;59961;50.232;8.616;2023-02-28T09:23:11;5.80;;;2.20;;
72087;SDS011;59961;50.232;8.616;2023-02-28T09:25:36;5.47;;;2.45;;
72087;SDS011;59961;50.232;8.616;2023-02-28T09:28:02;6.30;;;2.30;;
72087;SDS011;59961;50.232;8.616;2023-02-28T09:30:27;7.30;;;2.00;;
72087;SDS011;59961;50.232;8.616;2023-02-28T09:32:52;4.83;;;1.90;;
72087;SDS011;59961;50.232;8.616;2023-02-28T09:35:18;5.43;;;1.88;;
72087;SDS011;59961;50.232;8.616;2023-02-28T09:37:44;7.40;;;2.30;;
72087;SDS011;59961;50.232;8.616;2023-02-28T09:40:10;6.10;;;2.37;;
72087;SDS011;59961;50.232;8.616;2023-02-28T09:42:36;4.43;;;2.10;;
72087;SDS011;59961;50.232;8.616;2023-02-28T09:45:02;5.80;;;1.90;;
72087;SDS011;59961;50.232;8.616;2023-02-28T09:47:32;6.30;;;2.55;;
72087;SDS011;59961;50.232;8.616;2023-02-28T09:50:01;5.47;;;2.20;;
72087;SDS011;59961;50.232;8.616;2023-02-28T09:52:29;4.35;;;1.83;;
72087;SDS011;59961;50.232;8.616;2023-02-28T09:54:55;6.00;;;2.30;;
72087;SDS011;59961;50.232;8.616;2023-02-28T09:57:39;6.55;;;2.28;;
72087;SDS011;59961;50.232;8.616;2023-02-28T10:05:04;4.37;;;2.00;;
72087;SDS011;59961;50.232;8.616;2023-02-28T10:10:21;5.97;;;2.28;;
72087;SDS011;59961;50.232;8.616;2023-02-28T10:12:48;6.47;;;2.53;;
72087;SDS011;59961;50.232;8.616;2023-02-28T10:15:16;5.47;;;2.28;;
72087;SDS011;59961;50.232;8.616;2023-02-28T10:17:42;6.03;;;2.43;;
72087;SDS011;59961;50.232;8.616;2023-02-28T10:20:12;6.35;;;2.50;;
72087;SDS011;59961;50.232;8.616;2023-02-28T10:22:49;6.88;;;2.30;;
72087;SDS011;59961;50.232;8.616;2023-02-28T10:25:22;6.85;;;2.67;;
72087;SDS011;59961;50.232;8.616;2023-02-28T10:27:49;7.53;;;2.50;;
72087;SDS011;59961;50.232;8.616;2023-02-28T10:30:14;5.88;;;2.50;;
72087;SDS011;59961;50.232;8.616;2023-02-28T10:32:39;8.50;;;2.90;;
72087;SDS011;59961;50.232;8.616;2023-02-28T10:35:15;7.87;;;2.80;;
72087;SDS011;59961;50.232;8.616;2023-02-28T10:37:42;5.70;;;2.20;;
72087;SDS011;59961;50.232;8.616;2023-02-28T10:40:52;5.95;;;2.75;;
72087;SDS011;59961;50.232;8.616;2023-02-28T10:43:03;5.97;;;2.65;;
72087;SDS011;59961;50.232;8.616;2023-02-28T10:45:29;4.72;;;2.47;;
72087;SDS011;59961;50.232;8.616;2023-02-28T10:53:06;5.35;;;2.15;;
72087;SDS011;59961;50.232;8.616;2023-02-28T10:55:32;6.40;;;2.40;;
72087;SDS011;59961;50.232;8.616;2023-02-28T10:57:57;5.23;;;2.10;;
72087;SDS011;59961;50.232;8.616;2023-02-28T11:00:23;7.10;;;2.83;;
72087;SDS011;59961;50.232;8.616;2023-02-28T11:02:50;6.30;;;2.40;;
72087;SDS011;59961;50.232;8.616;2023-02-28T11:05:23;6.03;;;2.70;;
72087;SDS011;59961;50.232;8.616;2023-02-28T11:08:21;5.38;;;2.60;;
72087;SDS011;59961;50.232;8.616;2023-02-28T11:10:43;6.77;;;2.67;;
72087;SDS011;59961;50.232;8.616;2023-02-28T11:13:15;5.68;;;2.25;;
72087;SDS011;59961;50.232;8.616;2023-02-28T11:15:41;5.35;;;2.40;;
72087;SDS011;59961;50.232;8.616;2023-02-28T11:20:37;6.47;;;2.45;;
72087;SDS011;59961;50.232;8.616;2023-02-28T11:23:03;5.90;;;2.70;;
72087;SDS011;59961;50.232;8.616;2023-02-28T11:25:32;5.40;;;2.30;;
72087;SDS011;59961;50.232;8.616;2023-02-28T11:27:59;5.22;;;2.28;;
72087;SDS011;59961;50.232;8.616;2023-02-28T11:30:34;5.97;;;2.60;;
72087;SDS011;59961;50.232;8.616;2023-02-28T11:33:00;5.60;;;2.30;;
72087;SDS011;59961;50.232;8.616;2023-02-28T11:35:29;6.05;;;2.80;;
72087;SDS011;59961;50.232;8.616;2023-02-28T11:37:55;7.00;;;2.50;;
72087;SDS011;59961;50.232;8.616;2023-02-28T11:40:24;6.10;;;2.63;;
72087;SDS011;59961;50.232;8.616;2023-02-28T11:45:43;5.97;;;2.53;;
72087;SDS011;59961;50.232;8.616;2023-02-28T11:55:45;5.77;;;2.67;;
72087;SDS011;59961;50.232;8.616;2023-02-28T12:03:28;6.17;;;2.97;;
72087;SDS011;59961;50.232;8.616;2023-02-28T12:13:27;8.30;;;3.20;;
72087;SDS011;59961;50.232;8.616;2023-02-28T12:21:24;7.38;;;3.10;;
72087;SDS011;59961;50.232;8.616;2023-02-28T12:26:34;8.57;;;3.08;;
72087;SDS011;59961;50.232;8.616;2023-02-28T12:29:15;5.78;;;3.05;;
72087;SDS011;59961;50.232;8.616;2023-02-28T12:31:44;6.97;;;3.08;;
72087;SDS011;59961;50.232;8.616;2023-02-28T12:34:12;6.07;;;3.20;;
72087;SDS011;59961;50.232;8.616;2023-02-28T12:36:38;6.25;;;2.90;;
72087;SDS011;59961;50.232;8.616;2023-02-28T12:39:12;8.27;;;3.08;;
72087;SDS011;59961;50.232;8.616;2023-02-28T12:41:51;6.20;;;3.10;;
72087;SDS011;59961;50.232;8.616;2023-02-28T12:44:23;6.45;;;3.00;;
72087;SDS011;59961;50.232;8.616;2023-02-28T12:46:51;6.67;;;3.03;;
72087;SDS011;59961;50.232;8.616;2023-02-28T12:49:17;7.00;;;3.25;;
72087;SDS011;59961;50.232;8.616;2023-02-28T12:51:44;8.20;;;3.05;;
72087;SDS011;59961;50.232;8.616;2023-02-28T12:54:12;6.95;;;3.40;;
72087;SDS011;59961;50.232;8.616;2023-02-28T13:09:28;6.07;;;3.05;;
72087;SDS011;59961;50.232;8.616;2023-02-28T13:11:54;7.67;;;3.43;;
72087;SDS011;59961;50.232;8.616;2023-02-28T13:16:51;6.03;;;2.73;;
72087;SDS011;59961;50.232;8.616;2023-02-28T13:19:17;7.85;;;3.28;;
72087;SDS011;59961;50.232;8.616;2023-02-28T13:21:44;5.97;;;3.00;;
72087;SDS011;59961;50.232;8.616;2023-02-28T13:24:10;6.17;;;3.37;;
72087;SDS011;59961;50.232;8.616;2023-02-28T13:29:19;6.60;;;2.97;;
72087;SDS011;59961;50.232;8.616;2023-02-28T13:34:30;6.93;;;2.97;;
72087;SDS011;59961;50.232;8.616;2023-02-28T13:42:24;6.50;;;2.80;;
72087;SDS011;59961;50.232;8.616;2023-02-28T13:47:41;7.27;;;3.00;;
72087;SDS011;59961;50.232;8.616;2023-02-28T13:56:17;8.50;;;3.65;;
72087;SDS011;59961;50.232;8.616;2023-02-28T14:01:10;5.90;;;2.87;;
72087;SDS011;59961;50.232;8.616;2023-02-28T14:06:18;6.50;;;3.05;;
72087;SDS011;59961;50.232;8.616;2023-02-28T14:08:47;8.93;;;3.45;;
72087;SDS011;59961;50.232;8.616;2023-02-28T14:11:23;7.35;;;3.05;;
72087;SDS011;59961;50.232;8.616;2023-02-28T14:13:49;6.73;;;2.83;;
72087;SDS011;59961;50.232;8.616;2023-02-28T14:16:20;7.25;;;3.40;;
72087;SDS011;59961;50.232;8.616;2023-02-28T14:18:56;6.95;;;3.35;;
72087;SDS011;59961;50.232;8.616;2023-02-28T14:21:24;6.47;;;2.87;;
72087;SDS011;59961;50.232;8.616;2023-02-28T14:24:10;6.18;;;2.83;;
72087;SDS011;59961;50.232;8.616;2023-02-28T14:26:46;7.00;;;2.95;;
72087;SDS011;59961;50.232;8.616;2023-02-28T14:34:20;10.73;;;3.70;;
72087;SDS011;59961;50.232;8.616;2023-02-28T14:36:49;7.53;;;2.72;;
72087;SDS011;59961;50.232;8.616;2023-02-28T14:39:19;7.43;;;2.90;;
72087;SDS011;59961;50.232;8.616;2023-02-28T14:41:45;9.02;;;3.40;;
72087;SDS011;59961;50.232;8.616;2023-02-28T14:46:39;7.20;;;3.47;;
72087;SDS011;59961;50.232;8.616;2023-02-28T14:49:05;8.13;;;3.03;;
72087;SDS011;59961;50.232;8.616;2023-02-28T14:51:32;6.70;;;2.90;;
72087;SDS011;59961;50.232;8.616;2023-02-28T14:53:58;10.03;;;3.80;;
72087;SDS011;59961;50.232;8.616;2023-02-28T14:56:26;6.80;;;3.00;;
72087;SDS011;59961;50.232;8.616;2023-02-28T14:58:56;5.53;;;2.60;;
72087;SDS011;59961;50.232;8.616;2023-02-28T15:01:22;6.32;;;2.90;;
72087;SDS011;59961;50.232;8.616;2023-02-28T15:03:47;8.17;;;3.23;;
72087;SDS011;59961;50.232;8.616;2023-02-28T15:06:14;7.07;;;2.97;;
72087;SDS011;59961;50.232;8.616;2023-02-28T15:08:39;6.30;;;3.17;;
72087;SDS011;59961;50.232;8.616;2023-02-28T15:11:06;8.13;;;3.27;;
72087;SDS011;59961;50.232;8.616;2023-02-28T15:13:40;6.80;;;2.90;;
72087;SDS011;59961;50.232;8.616;2023-02-28T15:16:29;6.40;;;3.10;;
72087;SDS011;59961;50.232;8.616;2023-02-28T15:21:37;7.10;;;3.00;;
72087;SDS011;59961;50.232;8.616;2023-02-28T15:26:32;8.17;;;3.20;;
72087;SDS011;59961;50.232;8.616;2023-02-28T15:29:00;6.18;;;3.35;;
72087;SDS011;59961;50.232;8.616;2023-02-28T15:31:27;7.13;;;3.10;;
72087;SDS011;59961;50.232;8.616;2023-02-28T15:33:56;8.18;;;3.45;;
72087;SDS011;59961;50.232;8.616;2023-02-28T15:36:23;8.60;;;3.75;;
72087;SDS011;59961;50.232;8.616;2023-02-28T15:38:50;7.37;;;3.40;;
72087;SDS011;59961;50.232;8.616;2023-02-28T15:43:47;8.50;;;3.72;;
72087;SDS011;59961;50.232;8.616;2023-02-28T15:46:12;7.63;;;2.80;;
72087;SDS011;59961;50.232;8.616;2023-02-28T15:48:51;8.70;;;3.40;;
72087;SDS011;59961;50.232;8.616;2023-02-28T15:51:17;7.80;;;3.50;;
72087;SDS011;59961;50.232;8.616;2023-02-28T15:53:45;8.20;;;3.35;;
72087;SDS011;59961;50.232;8.616;2023-02-28T15:56:17;8.15;;;3.58;;
72087;SDS011;59961;50.232;8.616;2023-02-28T15:58:46;9.38;;;3.45;;
72087;SDS011;59961;50.232;8.616;2023-02-28T16:01:24;8.80;;;3.57;;
72087;SDS011;59961;50.232;8.616;2023-02-28T16:03:50;7.40;;;3.28;;
72087;SDS011;59961;50.232;8.616;2023-02-28T16:08:41;7.75;;;3.25;;
72087;SDS011;59961;50.232;8.616;2023-02-28T16:11:08;6.83;;;3.43;;
72087;SDS011;59961;50.232;8.616;2023-02-28T16:13:33;7.93;;;3.45;;
72087;SDS011;59961;50.232;8.616;2023-02-28T16:15:58;8.43;;;3.63;;
72087;SDS011;59961;50.232;8.616;2023-02-28T16:18:25;7.57;;;3.08;;
72087;SDS011;59961;50.232;8.616;2023-02-28T16:20:50;9.43;;;3.50;;
72087;SDS011;59961;50.232;8.616;2023-02-28T16:23:15;5.38;;;2.72;;
72087;SDS011;59961;50.232;8.616;2023-02-28T16:25:42;6.57;;;2.67;;
72087;SDS011;59961;50.232;8.616;2023-02-28T16:28:08;8.27;;;3.42;;
72087;SDS011;59961;50.232;8.616;2023-02-28T16:30:37;7.20;;;3.20;;
72087;SDS011;59961;50.232;8.616;2023-02-28T16:33:02;10.93;;;2.90;;
72087;SDS011;59961;50.232;8.616;2023-02-28T16:35:27;6.83;;;2.90;;
72087;SDS011;59961;50.232;8.616;2023-02-28T16:37:53;6.97;;;3.05;;
72087;SDS011;59961;50.232;8.616;2023-02-28T16:40:19;7.77;;;3.57;;
72087;SDS011;59961;50.232;8.616;2023-02-28T16:42:46;7.68;;;3.28;;
72087;SDS011;59961;50.232;8.616;2023-02-28T16:45:15;6.83;;;3.07;;
72087;SDS011;59961;50.232;8.616;2023-02-28T16:47:41;7.72;;;3.03;;
72087;SDS011;59961;50.232;8.616;2023-02-28T16:50:14;8.90;;;2.92;;
72087;SDS011;59961;50.232;8.616;2023-02-28T16:52:39;8.13;;;3.25;;
72087;SDS011;59961;50.232;8.616;2023-02-28T16:55:05;7.60;;;3.20;;
72087;SDS011;59961;50.232;8.616;2023-02-28T16:57:30;9.23;;;3.20;;